createdAt,value
2022-07-26T04:02:33.530Z,100144.25
2022-07-26T04:05:00.553Z,100146.91
2022-07-26T04:07:27.888Z,100146.44
2022-07-26T04:09:54.953Z,100141.72
2022-07-26T04:12:21.875Z,100139.13
2022-07-26T04:14:48.908Z,100141.97
2022-07-26T04:17:15.995Z,100147.72
2022-07-26T04:19:42.993Z,100150.50
2022-07-26T04:22:10.042Z,100147.88
2022-07-26T04:24:37.069Z,100148.31
2022-07-26T04:27:04.418Z,100161.75
2022-07-26T04:29:31.424Z,100164.94
2022-07-26T04:31:58.350Z,100168.66
2022-07-26T04:34:25.439Z,100168.16
2022-07-26T04:36:52.701Z,100163.78
2022-07-26T04:39:24.509Z,100167.63
2022-07-26T04:41:51.517Z,100171.47
2022-07-26T04:44:18.479Z,100168.25
2022-07-26T04:46:45.976Z,100166.84
2022-07-26T04:49:13.976Z,100171.09
2022-07-26T04:51:41.065Z,100168.75
2022-07-26T04:54:08.457Z,100172.44
2022-07-26T04:56:35.702Z,100175.97
2022-07-26T04:59:02.782Z,100173.97
2022-07-26T05:01:29.825Z,100175.63
2022-07-26T05:03:56.951Z,100175.38
2022-07-26T05:06:23.992Z,100174.78
2022-07-26T05:08:51.123Z,100172.38
2022-07-26T05:11:18.067Z,100176.34
2022-07-26T05:14:00.189Z,100174.41
2022-07-26T05:16:27.343Z,100177.88
2022-07-26T05:18:54.928Z,100171.56
2022-07-26T05:21:21.861Z,100163.84
2022-07-26T05:23:49.030Z,100172.28
2022-07-26T05:26:16.059Z,100178.50
2022-07-26T05:28:43.035Z,100182.06
2022-07-26T05:31:11.197Z,100188.38
2022-07-26T05:33:38.289Z,100187.34
2022-07-26T05:36:05.683Z,100189.84
2022-07-26T05:38:39.372Z,100195.59
2022-07-26T05:41:06.874Z,100208.84
2022-07-26T05:43:40.731Z,100210.28
2022-07-26T05:49:14.780Z,100207.94
2022-07-26T05:51:56.937Z,100201.63
2022-07-26T05:54:28.097Z,100208.59
2022-07-26T05:56:55.169Z,100212.19
2022-07-26T05:59:22.178Z,100213.81
2022-07-26T06:01:49.132Z,100216.69
2022-07-26T06:04:16.314Z,100217.28
2022-07-26T06:06:43.504Z,100217.03
2022-07-26T06:09:10.624Z,100222.91
2022-07-26T06:11:37.658Z,100226.34
2022-07-26T06:14:04.697Z,100229.97
2022-07-26T06:16:31.894Z,100226.53
2022-07-26T06:18:59.115Z,100210.38
2022-07-26T06:21:26.261Z,100216.88
2022-07-26T06:23:53.313Z,100200.81
2022-07-26T06:26:20.351Z,100204.56
2022-07-26T06:28:50.336Z,100189.78
2022-07-26T06:31:20.449Z,100196.09
2022-07-26T06:33:48.014Z,100205.22
2022-07-26T06:36:15.086Z,100190.06
2022-07-26T06:38:42.196Z,100208.16
2022-07-26T06:41:09.169Z,100198.03
2022-07-26T06:43:36.180Z,100206.47
2022-07-26T06:46:03.196Z,100207.06
2022-07-26T06:48:30.296Z,100211.34
2022-07-26T06:50:57.384Z,100194.75
2022-07-26T06:53:24.309Z,100205.66
2022-07-26T06:55:51.351Z,100204.28
2022-07-26T06:58:18.418Z,100205.38
2022-07-26T07:00:45.471Z,100197.22
2022-07-26T07:03:12.466Z,100195.06
2022-07-26T07:05:39.431Z,100193.75
2022-07-26T07:08:07.295Z,100200.25
2022-07-26T07:10:34.651Z,100195.94
2022-07-26T07:13:01.792Z,100196.72
2022-07-26T07:15:28.843Z,100203.69
2022-07-26T07:17:55.985Z,100199.00
2022-07-26T07:20:24.175Z,100193.28
2022-07-26T07:22:51.124Z,100186.66
2022-07-26T07:25:18.255Z,100192.72
2022-07-26T07:27:50.216Z,100183.56
2022-07-26T07:30:17.463Z,100176.69
2022-07-26T07:32:44.447Z,100186.31
2022-07-26T07:35:12.828Z,100182.81
2022-07-26T07:37:52.557Z,100183.75
2022-07-26T07:40:22.833Z,100193.59
2022-07-26T07:42:49.936Z,100182.41
2022-07-26T07:45:16.940Z,100185.16
2022-07-26T07:47:43.963Z,100190.81
2022-07-26T07:50:13.088Z,100184.94
2022-07-26T07:52:40.441Z,100190.78
2022-07-26T07:55:41.594Z,100184.94
2022-07-26T07:57:55.867Z,100182.03
2022-07-26T08:00:27.295Z,100199.75
2022-07-26T08:02:55.181Z,100195.75
2022-07-26T08:05:22.741Z,100201.44
2022-07-26T08:07:50.038Z,100192.97
2022-07-26T08:10:19.980Z,100190.22
2022-07-26T08:12:47.055Z,100191.84
2022-07-26T08:15:19.458Z,100183.41
2022-07-26T08:17:53.864Z,100190.00
2022-07-26T08:20:23.749Z,100195.31
2022-07-26T08:22:52.828Z,100178.56
2022-07-26T08:25:20.550Z,100182.59
2022-07-26T08:28:03.086Z,100184.19
2022-07-26T08:30:34.593Z,100178.63
2022-07-26T08:33:01.839Z,100175.00
2022-07-26T08:35:29.691Z,100176.03
2022-07-26T08:37:57.950Z,100178.44
2022-07-26T08:40:24.890Z,100181.41
2022-07-26T08:42:56.718Z,100188.66
2022-07-26T08:45:30.572Z,100191.50
2022-07-26T08:48:18.396Z,100191.91
2022-07-26T08:50:48.448Z,100200.88
2022-07-26T08:53:16.882Z,100200.28
2022-07-26T08:56:05.893Z,100200.06
2022-07-26T08:58:40.746Z,100195.72
2022-07-26T09:01:15.044Z,100190.94
2022-07-26T09:03:44.836Z,100190.63
2022-07-26T09:06:18.214Z,100192.59
2022-07-26T09:08:49.223Z,100190.06
2022-07-26T09:11:28.343Z,100188.75
2022-07-26T09:14:00.632Z,100184.13
2022-07-26T09:16:29.490Z,100174.06
2022-07-26T09:19:19.074Z,100179.84
2022-07-26T09:21:47.204Z,100178.78
2022-07-26T09:24:43.782Z,100166.44
2022-07-26T09:27:15.273Z,100160.31
2022-07-26T09:29:54.036Z,100167.09
2022-07-26T09:32:23.405Z,100175.66
2022-07-26T09:34:58.803Z,100169.50
2022-07-26T09:37:43.987Z,100163.53
2022-07-26T09:40:14.463Z,100171.50
2022-07-26T09:43:05.866Z,100156.34
2022-07-26T09:45:36.373Z,100157.69
2022-07-26T09:48:04.345Z,100159.72
2022-07-26T09:50:33.203Z,100165.47
2022-07-26T09:53:13.479Z,100166.75
2022-07-26T09:55:46.449Z,100177.63
2022-07-26T09:58:16.413Z,100172.19
2022-07-26T10:00:44.351Z,100188.03
2022-07-26T10:03:12.441Z,100177.94
2022-07-26T10:05:39.748Z,100180.53
2022-07-26T10:08:08.310Z,100177.94
2022-07-26T10:10:47.001Z,100170.06
2022-07-26T10:13:14.713Z,100174.38
2022-07-26T10:15:47.963Z,100178.69
2022-07-26T10:18:38.145Z,100171.31
2022-07-26T10:21:21.180Z,100177.78
2022-07-26T10:24:02.751Z,100171.34
2022-07-26T10:26:32.745Z,100171.66
2022-07-26T10:29:18.050Z,100170.59
2022-07-26T10:32:00.583Z,100176.06
2022-07-26T10:34:38.286Z,100171.22
2022-07-26T10:37:09.144Z,100181.25
2022-07-26T10:39:37.892Z,100176.63
2022-07-26T10:42:10.256Z,100159.69
2022-07-26T10:44:42.239Z,100154.25
2022-07-26T10:47:09.642Z,100152.16
2022-07-26T10:49:58.087Z,100166.38
2022-07-26T10:52:28.599Z,100165.94
2022-07-26T10:55:07.132Z,100178.19
2022-07-26T10:57:41.288Z,100171.47
2022-07-26T11:00:17.657Z,100165.28
2022-07-26T11:02:53.729Z,100173.75
2022-07-26T11:05:23.010Z,100165.31
2022-07-26T11:07:57.996Z,100164.38
2022-07-26T11:10:32.510Z,100158.69
2022-07-26T11:13:29.173Z,100157.59
2022-07-26T11:16:07.812Z,100167.66
2022-07-26T11:18:41.305Z,100170.34
2022-07-26T11:21:31.246Z,100167.22
2022-07-26T11:24:03.065Z,100169.84
2022-07-26T11:26:33.362Z,100160.88
2022-07-26T11:29:03.992Z,100167.38
2022-07-26T11:31:51.534Z,100163.09
2022-07-26T11:34:30.746Z,100150.75
2022-07-26T11:37:00.928Z,100149.53
2022-07-26T11:39:35.600Z,100137.31
2022-07-26T11:42:07.558Z,100134.50
2022-07-26T11:44:35.171Z,100138.72
2022-07-26T11:47:14.163Z,100142.94
2022-07-26T11:49:51.780Z,100134.53
2022-07-26T11:52:32.486Z,100137.81
2022-07-26T11:55:00.087Z,100137.53
2022-07-26T11:57:32.564Z,100134.09
2022-07-26T12:00:01.375Z,100129.25
2022-07-26T12:02:30.500Z,100131.94
2022-07-26T12:05:23.363Z,100137.50
2022-07-26T12:08:07.393Z,100133.75
2022-07-26T12:10:35.870Z,100130.88
2022-07-26T12:13:15.614Z,100142.72
2022-07-26T12:15:49.546Z,100132.44
2022-07-26T12:18:30.910Z,100125.50
2022-07-26T12:21:07.789Z,100120.38
2022-07-26T12:23:48.695Z,100113.72
2022-07-26T12:26:24.122Z,100106.59
2022-07-26T12:28:51.614Z,100113.72
2022-07-26T12:31:31.536Z,100115.88
2022-07-26T12:33:59.535Z,100118.53
2022-07-26T12:36:30.073Z,100110.97
2022-07-26T12:38:59.293Z,100114.22
2022-07-26T12:41:40.231Z,100110.97
2022-07-26T12:44:12.653Z,100109.31
2022-07-26T12:46:40.486Z,100114.19
2022-07-26T12:49:07.710Z,100104.22
2022-07-26T12:51:34.993Z,100099.78
2022-07-26T12:54:03.431Z,100098.22
2022-07-26T12:56:30.517Z,100092.84
2022-07-26T12:59:01.726Z,100092.28
2022-07-26T13:01:30.802Z,100099.78
2022-07-26T13:03:58.161Z,100096.56
2022-07-26T13:06:25.233Z,100091.72
2022-07-26T13:11:33.078Z,100086.59
2022-07-26T13:14:00.165Z,100084.50
2022-07-26T13:16:27.268Z,100078.34
2022-07-26T13:18:54.517Z,100084.44
2022-07-26T13:21:21.696Z,100082.56
2022-07-26T13:23:48.759Z,100086.34
2022-07-26T13:26:16.002Z,100086.94
2022-07-26T13:28:43.510Z,100077.34
2022-07-26T13:31:11.759Z,100073.31
2022-07-26T13:33:39.995Z,100071.63
2022-07-26T13:36:07.149Z,100069.44
2022-07-26T13:38:34.445Z,100069.63
2022-07-26T13:41:02.790Z,100073.72
2022-07-26T13:43:33.316Z,100066.06
2022-07-26T13:46:00.444Z,100074.53
2022-07-26T13:48:28.274Z,100076.66
2022-07-26T13:50:57.598Z,100068.97
2022-07-26T13:53:29.973Z,100066.59
2022-07-26T13:55:57.160Z,100065.78
2022-07-26T13:58:24.220Z,100065.81
2022-07-26T14:00:52.278Z,100059.91
2022-07-26T14:03:20.658Z,100059.63
2022-07-26T14:05:47.761Z,100060.13
2022-07-26T14:08:14.794Z,100062.16
2022-07-26T14:10:42.886Z,100063.75
2022-07-26T14:13:09.997Z,100066.03
2022-07-26T14:15:37.121Z,100062.84
2022-07-26T14:18:04.556Z,100065.97
2022-07-26T14:20:31.556Z,100062.44
2022-07-26T14:23:00.767Z,100062.03
2022-07-26T14:25:28.849Z,100061.69
2022-07-26T14:27:56.985Z,100046.63
2022-07-26T14:30:24.197Z,100055.00
2022-07-26T14:32:51.303Z,100049.00
2022-07-26T14:35:18.455Z,100049.09
2022-07-26T14:37:46.116Z,100039.53
2022-07-26T14:40:16.085Z,100050.66
2022-07-26T14:42:46.235Z,100057.94
2022-07-26T14:45:15.815Z,100064.13
2022-07-26T14:47:43.894Z,100069.16
2022-07-26T14:50:14.158Z,100086.28
2022-07-26T14:52:47.657Z,100086.53
2022-07-26T14:55:18.309Z,100095.06
2022-07-26T14:57:50.094Z,100094.81
2022-07-26T15:00:18.940Z,100097.47
2022-07-26T15:02:48.190Z,100092.81
2022-07-26T15:05:16.496Z,100095.72
2022-07-26T15:07:45.038Z,100088.03
2022-07-26T15:10:14.716Z,100094.41
2022-07-26T15:12:43.101Z,100090.56
2022-07-26T15:15:11.836Z,100083.25
2022-07-26T15:17:39.198Z,100073.66
2022-07-26T15:20:07.288Z,100076.94
2022-07-26T15:22:35.017Z,100070.50
2022-07-26T15:25:06.201Z,100071.53
2022-07-26T15:27:33.568Z,100073.50
2022-07-26T15:30:05.052Z,100075.03
2022-07-26T15:32:36.152Z,100060.97
2022-07-26T15:35:05.120Z,100063.66
2022-07-26T15:37:34.311Z,100041.22
2022-07-26T15:40:01.764Z,100041.53
2022-07-26T15:42:32.455Z,100035.63
2022-07-26T15:45:05.656Z,100033.56
2022-07-26T15:47:54.718Z,100035.38
2022-07-26T15:50:22.314Z,100032.28
2022-07-26T15:52:50.829Z,100023.06
2022-07-26T15:55:19.721Z,100019.06
2022-07-26T15:57:47.700Z,100028.50
2022-07-26T16:00:16.499Z,100036.50
2022-07-26T16:02:43.763Z,100035.47
2022-07-26T16:05:11.845Z,100032.56
2022-07-26T16:07:44.169Z,100031.78
2022-07-26T16:10:12.988Z,100032.59
2022-07-26T16:12:41.705Z,100029.66
2022-07-26T16:15:10.426Z,100035.81
2022-07-26T16:17:38.021Z,100033.94
2022-07-26T16:20:06.215Z,100038.75
2022-07-26T16:22:33.350Z,100032.06
2022-07-26T16:25:00.384Z,100030.69
2022-07-26T16:27:27.422Z,100023.16
2022-07-26T16:29:54.431Z,100026.16
2022-07-26T16:32:21.625Z,100018.41
2022-07-26T16:34:48.950Z,100026.97
2022-07-26T16:37:15.970Z,100027.75
2022-07-26T16:39:42.958Z,100027.47
2022-07-26T16:42:09.946Z,100030.44
2022-07-26T16:44:37.022Z,100028.59
2022-07-26T16:47:04.634Z,100029.59
2022-07-26T16:49:32.799Z,100027.22
2022-07-26T16:52:00.014Z,100026.44
2022-07-26T16:54:28.150Z,100022.94
2022-07-26T16:56:55.100Z,100023.50
2022-07-26T16:59:23.509Z,100027.41
2022-07-26T17:01:50.555Z,100022.13
2022-07-26T17:04:17.923Z,100019.41
2022-07-26T17:07:01.663Z,100026.19
2022-07-26T17:09:32.355Z,100034.69
2022-07-26T17:12:04.261Z,100034.38
2022-07-26T17:14:33.372Z,100039.28
2022-07-26T17:17:00.404Z,100035.69
2022-07-26T17:19:27.791Z,100036.69
2022-07-26T17:21:54.847Z,100048.00
2022-07-26T17:24:21.904Z,100036.69
2022-07-26T17:26:48.853Z,100041.69
2022-07-26T17:29:15.904Z,100038.59
2022-07-26T17:31:42.850Z,100044.16
2022-07-26T17:34:09.918Z,100043.09
2022-07-26T17:36:37.226Z,100038.56
2022-07-26T17:39:04.749Z,100030.97
2022-07-26T17:41:33.605Z,100025.31
2022-07-26T17:44:03.001Z,100018.66
2022-07-26T17:46:33.940Z,100006.16
2022-07-26T17:49:01.148Z,100004.88
2022-07-26T17:51:28.340Z,99997.84
2022-07-26T17:53:55.263Z,99998.78
2022-07-26T17:56:22.214Z,100002.88
2022-07-26T17:58:49.587Z,100016.75
2022-07-26T18:01:16.662Z,100020.53
2022-07-26T18:03:43.666Z,100020.75
2022-07-26T18:06:10.719Z,100024.00
2022-07-26T18:08:38.509Z,100015.22
2022-07-26T18:11:07.352Z,100020.25
2022-07-26T18:13:34.489Z,100013.56
2022-07-26T18:16:05.765Z,100008.78
2022-07-26T18:18:33.531Z,100018.91
2022-07-26T18:21:00.574Z,100020.84
2022-07-26T18:23:27.555Z,100029.81
2022-07-26T18:25:54.559Z,100027.31
2022-07-26T18:28:21.497Z,100034.06
2022-07-26T18:30:48.508Z,100039.44
2022-07-26T18:33:15.445Z,100044.16
2022-07-26T18:35:42.555Z,100045.53
2022-07-26T18:38:10.611Z,100042.25
2022-07-26T18:40:37.689Z,100051.28
2022-07-26T18:43:04.795Z,100057.28
2022-07-26T18:45:31.817Z,100057.97
2022-07-26T18:47:58.879Z,100054.47
2022-07-26T18:50:26.979Z,100067.09
2022-07-26T18:52:59.269Z,100070.50
2022-07-26T18:55:26.493Z,100065.50
2022-07-26T18:57:53.702Z,100072.94
2022-07-26T19:00:22.693Z,100068.81
2022-07-26T19:02:52.052Z,100082.59
2022-07-26T19:05:20.248Z,100087.50
2022-07-26T19:07:47.214Z,100082.50
2022-07-26T19:10:14.644Z,100082.75
2022-07-26T19:12:42.259Z,100086.47
2022-07-26T19:15:09.548Z,100088.84
2022-07-26T19:17:37.149Z,100093.19
2022-07-26T19:20:06.781Z,100085.91
2022-07-26T19:22:34.541Z,100095.84
2022-07-26T19:25:01.833Z,100096.22
2022-07-26T19:27:28.988Z,100095.34
2022-07-26T19:29:57.066Z,100109.28
2022-07-26T19:32:27.176Z,100106.13
2022-07-26T19:34:57.382Z,100108.72
2022-07-26T19:37:24.456Z,100106.66
2022-07-26T19:39:53.645Z,100114.00
2022-07-26T19:42:21.935Z,100118.31
2022-07-26T19:44:48.922Z,100118.16
2022-07-26T19:47:16.991Z,100122.75
2022-07-26T19:49:44.105Z,100127.75
2022-07-26T19:52:11.894Z,100128.75
2022-07-26T19:54:39.559Z,100124.25
2022-07-26T19:57:08.198Z,100141.16
2022-07-26T19:59:35.225Z,100135.50
2022-07-26T20:02:02.625Z,100140.56
2022-07-26T20:04:29.818Z,100139.19
2022-07-26T20:06:56.823Z,100144.88
2022-07-26T20:09:23.910Z,100146.25
2022-07-26T20:11:51.205Z,100146.59
2022-07-26T20:14:20.108Z,100152.13
2022-07-26T20:16:51.690Z,100154.53
2022-07-26T20:19:24.257Z,100158.00
2022-07-26T20:21:51.331Z,100152.34
2022-07-26T20:24:19.025Z,100157.16
2022-07-26T20:26:46.154Z,100164.09
2022-07-26T20:29:13.905Z,100162.69
2022-07-26T20:31:41.310Z,100167.78
2022-07-26T20:34:08.363Z,100169.22
2022-07-26T20:36:35.582Z,100172.22
2022-07-26T20:39:02.896Z,100174.72
2022-07-26T20:41:33.979Z,100175.50
2022-07-26T20:44:01.216Z,100183.75
2022-07-26T20:46:28.411Z,100185.81
2022-07-26T20:48:55.634Z,100174.97
2022-07-26T20:51:22.858Z,100177.59
2022-07-26T20:53:50.981Z,100171.84
2022-07-26T20:56:18.038Z,100175.44
2022-07-26T20:58:45.072Z,100181.72
2022-07-26T21:01:14.016Z,100184.94
2022-07-26T21:03:41.158Z,100202.38
2022-07-26T21:06:08.499Z,100208.38
2022-07-26T21:08:36.319Z,100214.91
2022-07-26T21:11:03.820Z,100202.88
2022-07-26T21:13:34.089Z,100223.50
2022-07-26T21:16:01.160Z,100221.22
2022-07-26T21:18:29.910Z,100208.88
2022-07-26T21:20:58.241Z,100202.94
2022-07-26T21:23:25.644Z,100216.47
2022-07-26T21:25:58.075Z,100226.63
2022-07-26T21:28:29.923Z,100218.75
2022-07-26T21:30:57.093Z,100222.34
2022-07-26T21:33:24.172Z,100223.78
2022-07-26T21:35:52.351Z,100217.69
2022-07-26T21:38:20.498Z,100222.84
2022-07-26T21:40:49.541Z,100211.69
2022-07-26T21:43:17.633Z,100215.34
2022-07-26T21:45:45.699Z,100224.09
2022-07-26T21:48:15.804Z,100226.88
2022-07-26T21:50:46.899Z,100229.63
2022-07-26T21:53:13.919Z,100223.56
2022-07-26T21:55:43.289Z,100226.31
2022-07-26T21:58:10.908Z,100236.00
2022-07-26T22:00:39.232Z,100231.75
2022-07-26T22:03:07.618Z,100241.66
2022-07-26T22:05:42.422Z,100240.72
2022-07-26T22:08:13.799Z,100245.03
2022-07-26T22:10:45.047Z,100244.31
2022-07-26T22:13:13.817Z,100248.28
2022-07-26T22:15:45.022Z,100250.75
2022-07-26T22:18:13.517Z,100254.09
2022-07-26T22:20:41.519Z,100253.31
2022-07-26T22:23:12.772Z,100249.88
2022-07-26T22:25:40.411Z,100254.94
2022-07-26T22:28:09.104Z,100260.84
2022-07-26T22:30:37.034Z,100252.31
2022-07-26T22:33:07.873Z,100255.56
2022-07-26T22:35:36.379Z,100253.50
2022-07-26T22:38:10.159Z,100256.31
2022-07-26T22:40:39.309Z,100255.13
2022-07-26T22:43:07.428Z,100254.91
2022-07-26T22:45:35.184Z,100253.13
2022-07-26T22:48:05.738Z,100253.72
2022-07-26T22:50:33.836Z,100256.75
2022-07-26T22:53:01.112Z,100253.94
2022-07-26T22:55:29.014Z,100251.28
2022-07-26T22:57:57.250Z,100239.47
2022-07-26T23:00:24.551Z,100239.84
2022-07-26T23:02:52.038Z,100230.69
2022-07-26T23:05:19.891Z,100230.47
2022-07-26T23:07:48.493Z,100215.41
2022-07-26T23:10:16.959Z,100218.88
2022-07-26T23:12:44.652Z,100219.69
2022-07-26T23:15:12.522Z,100229.84
2022-07-26T23:17:39.829Z,100231.28
2022-07-26T23:20:09.627Z,100241.22
2022-07-26T23:22:37.168Z,100243.75
2022-07-26T23:25:05.931Z,100248.00
2022-07-26T23:27:35.170Z,100242.66
2022-07-26T23:30:02.199Z,100252.84
2022-07-26T23:32:30.198Z,100250.44
2022-07-26T23:34:57.154Z,100247.19
2022-07-26T23:37:26.227Z,100244.13
2022-07-26T23:39:54.304Z,100242.94
2022-07-26T23:42:21.433Z,100247.63
2022-07-26T23:44:48.490Z,100250.09
2022-07-26T23:47:15.561Z,100264.28
2022-07-26T23:49:42.572Z,100244.00
2022-07-26T23:52:10.029Z,100239.53
2022-07-26T23:54:37.422Z,100239.09
2022-07-26T23:57:04.556Z,100254.34
2022-07-26T23:59:31.690Z,100250.91
